Time;durP1;ratioP1;P1;durP2;ratioP2;P2;SDS_P1;SDS_P2;PMS_P1;PMS_P2;Temp;Humidity;BMP_temperature;BMP_pressure;BME280_temperature;BME280_humidity;BME280_pressure;Samples;Min_cycle;Max_cycle;Signal;HPM_P1;HPM_P2
2021/08/18 00:02:04;;;;;;;18.80;8.93;;;14.60;99.90;;;;;;5059299;28;20021;-67
2021/08/18 00:04:30;;;;;;;19.92;9.55;;;14.50;99.90;;;;;;5059002;28;20024;-66
2021/08/18 00:06:56;;;;;;;18.25;8.20;;;14.50;99.90;;;;;;5058690;28;20036;-68
2021/08/18 00:09:22;;;;;;;19.20;9.57;;;14.50;99.90;;;;;;5058528;28;20495;-66
2021/08/18 00:11:47;;;;;;;17.65;9.30;;;14.50;99.90;;;;;;5057903;28;20171;-67
2021/08/18 00:14:13;;;;;;;20.10;9.75;;;14.50;99.90;;;;;;5054363;28;20144;-67
2021/08/18 00:16:39;;;;;;;18.48;9.88;;;14.50;99.90;;;;;;5058442;28;20028;-66
2021/08/18 00:19:05;;;;;;;18.60;9.82;;;14.50;99.90;;;;;;5058633;28;20035;-67
2021/08/18 00:21:31;;;;;;;16.48;9.20;;;14.60;99.90;;;;;;5058268;28;20024;-67
2021/08/18 00:23:56;;;;;;;20.05;9.88;;;14.60;99.90;;;;;;5060139;28;20029;-67
2021/08/18 00:26:26;;;;;;;16.25;9.60;;;14.60;99.90;;;;;;5038211;28;20107;-67
2021/08/18 00:28:53;;;;;;;17.15;10.18;;;14.60;99.90;;;;;;5059392;28;20141;-67
2021/08/18 00:31:20;;;;;;;15.93;9.23;;;14.60;99.90;;;;;;5053709;28;20035;-69
2021/08/18 00:33:46;;;;;;;16.92;9.70;;;14.60;99.90;;;;;;5056579;28;20976;-66
2021/08/18 00:36:12;;;;;;;15.85;9.02;;;14.60;99.90;;;;;;5054747;28;20029;-66
2021/08/18 00:38:37;;;;;;;15.50;9.15;;;14.60;99.90;;;;;;5055744;28;20405;-67
2021/08/18 00:41:03;;;;;;;15.07;9.65;;;14.60;99.90;;;;;;5059733;28;20435;-66
2021/08/18 00:43:29;;;;;;;18.42;9.23;;;14.60;99.90;;;;;;5056672;28;20024;-68
2021/08/18 00:45:56;;;;;;;17.42;9.43;;;14.50;99.90;;;;;;5058394;28;20116;-67
2021/08/18 00:48:22;;;;;;;19.08;10.10;;;14.50;99.90;;;;;;5057133;28;20037;-65
2021/08/18 00:50:48;;;;;;;14.63;8.23;;;14.50;99.90;;;;;;5036941;28;20070;-67
2021/08/18 00:53:14;;;;;;;16.30;8.90;;;14.50;99.90;;;;;;5058880;28;20540;-66
2021/08/18 00:55:41;;;;;;;15.70;9.27;;;14.60;99.90;;;;;;5056820;28;20031;-65
2021/08/18 00:58:09;;;;;;;14.48;8.57;;;14.50;99.90;;;;;;5057310;28;20184;-66
2021/08/18 01:00:35;;;;;;;14.02;8.55;;;14.60;99.90;;;;;;5056792;28;20033;-66
2021/08/18 01:03:01;;;;;;;16.85;9.02;;;14.60;99.90;;;;;;5059600;28;20449;-66
2021/08/18 01:05:29;;;;;;;14.68;7.93;;;14.60;99.90;;;;;;5058927;28;20108;-65
2021/08/18 01:07:57;;;;;;;15.45;9.18;;;14.60;99.90;;;;;;5052702;28;20032;-66
2021/08/18 01:10:31;;;;;;;14.05;9.13;;;14.60;99.90;;;;;;5055356;28;20025;-66
2021/08/18 01:12:56;;;;;;;12.65;8.00;;;14.60;99.90;;;;;;5056067;28;20075;-66
2021/08/18 01:15:25;;;;;;;14.80;9.02;;;14.60;99.90;;;;;;5056629;28;20041;-67
2021/08/18 01:17:58;;;;;;;13.15;8.00;;;14.60;99.90;;;;;;5056087;28;20064;-67
2021/08/18 01:20:31;;;;;;;16.80;9.02;;;14.60;99.90;;;;;;5054388;28;20037;-67
2021/08/18 01:23:00;;;;;;;16.52;8.57;;;14.50;99.90;;;;;;5056367;28;20398;-66
2021/08/18 01:25:25;;;;;;;13.77;8.77;;;14.60;99.90;;;;;;5051913;28;20052;-66
2021/08/18 01:27:55;;;;;;;13.02;8.05;;;14.50;99.90;;;;;;5056077;28;20024;-67
2021/08/18 01:30:24;;;;;;;11.85;8.15;;;14.60;99.90;;;;;;5056598;28;20060;-67
2021/08/18 01:32:57;;;;;;;14.13;7.90;;;14.50;99.90;;;;;;5057472;28;20032;-67
2021/08/18 01:35:26;;;;;;;14.25;9.07;;;14.50;99.90;;;;;;5055246;28;20028;-66
2021/08/18 01:37:53;;;;;;;12.02;7.88;;;14.50;99.90;;;;;;5053584;28;20361;-68
2021/08/18 01:40:20;;;;;;;16.23;8.73;;;14.50;99.90;;;;;;5054882;28;20032;-65
2021/08/18 01:42:46;;;;;;;12.65;8.52;;;14.50;99.90;;;;;;5054610;28;20028;-66
2021/08/18 01:45:23;;;;;;;15.77;8.57;;;14.50;99.90;;;;;;5057205;28;20028;-66
2021/08/18 01:47:50;;;;;;;13.35;8.15;;;14.50;99.90;;;;;;5056130;28;20544;-66
2021/08/18 01:50:17;;;;;;;15.48;9.48;;;14.50;99.90;;;;;;5056742;28;20052;-67
2021/08/18 01:52:43;;;;;;;12.82;7.90;;;14.40;99.90;;;;;;5055898;28;20056;-66
2021/08/18 01:55:10;;;;;;;14.32;8.85;;;14.40;99.90;;;;;;5055982;28;20048;-66
2021/08/18 01:57:38;;;;;;;15.77;9.75;;;14.40;99.90;;;;;;5054044;28;20107;-67
2021/08/18 02:00:06;;;;;;;13.05;8.95;;;14.40;99.90;;;;;;5051755;28;20394;-67
2021/08/18 02:02:32;;;;;;;14.70;9.65;;;14.40;99.90;;;;;;5053606;28;20039;-66
2021/08/18 02:04:58;;;;;;;13.63;9.27;;;14.30;99.90;;;;;;5053761;28;20110;-65
2021/08/18 02:07:24;;;;;;;19.17;9.43;;;14.30;99.90;;;;;;5053935;28;20025;-67
2021/08/18 02:09:50;;;;;;;13.40;8.80;;;14.30;99.90;;;;;;5053637;28;20040;-67
2021/08/18 02:12:16;;;;;;;15.63;9.05;;;14.30;99.90;;;;;;5037494;28;20024;-67
2021/08/18 02:14:42;;;;;;;13.60;8.93;;;14.20;99.90;;;;;;5053162;28;20136;-68
2021/08/18 02:17:08;;;;;;;17.80;10.70;;;14.20;99.90;;;;;;5055460;28;20040;-66
2021/08/18 02:19:34;;;;;;;14.32;9.27;;;14.20;99.90;;;;;;5057136;28;20536;-67
2021/08/18 02:22:00;;;;;;;17.25;9.70;;;14.20;99.90;;;;;;5054955;28;20036;-66
2021/08/18 02:24:26;;;;;;;12.85;8.80;;;14.10;99.90;;;;;;5055057;28;20061;-67
2021/08/18 02:26:52;;;;;;;11.93;8.63;;;14.20;99.90;;;;;;5055661;28;20036;-67
2021/08/18 02:29:18;;;;;;;15.82;9.63;;;14.10;99.90;;;;;;5057030;28;20045;-67
2021/08/18 02:31:43;;;;;;;14.55;9.52;;;14.10;99.90;;;;;;5059138;28;20039;-67
2021/08/18 02:34:12;;;;;;;17.70;10.73;;;14.10;99.90;;;;;;5051399;28;20019;-67
2021/08/18 02:36:38;;;;;;;14.18;9.95;;;14.10;99.90;;;;;;5059496;28;20290;-66
2021/08/18 02:39:05;;;;;;;13.10;9.23;;;14.10;99.90;;;;;;5060378;28;20028;-67
2021/08/18 02:41:32;;;;;;;16.42;10.15;;;14.00;99.90;;;;;;5059315;28;20036;-67
2021/08/18 02:43:58;;;;;;;19.35;11.13;;;14.00;99.90;;;;;;5041694;28;20491;-66
2021/08/18 02:46:24;;;;;;;18.45;9.50;;;14.00;99.90;;;;;;5059940;28;20100;-66
2021/08/18 02:48:50;;;;;;;18.60;10.00;;;14.00;99.90;;;;;;5054782;28;20032;-67
2021/08/18 02:51:15;;;;;;;17.77;10.15;;;14.00;99.90;;;;;;5060966;28;20104;-66
2021/08/18 02:53:41;;;;;;;14.57;9.70;;;14.00;99.90;;;;;;5058634;28;20031;-67
2021/08/18 02:56:07;;;;;;;13.70;9.15;;;14.00;99.90;;;;;;5042627;28;20089;-67
2021/08/18 02:58:33;;;;;;;18.42;10.35;;;14.00;99.90;;;;;;5057879;28;20125;-67
2021/08/18 03:00:59;;;;;;;13.70;8.60;;;14.00;99.90;;;;;;5058755;28;20089;-68
2021/08/18 03:03:25;;;;;;;14.80;9.23;;;14.00;99.90;;;;;;5060464;28;20024;-66
2021/08/18 03:05:51;;;;;;;20.08;9.65;;;13.90;99.90;;;;;;5060687;28;20674;-67
2021/08/18 03:08:17;;;;;;;14.75;9.25;;;14.00;99.90;;;;;;5058574;28;20061;-66
2021/08/18 03:10:42;;;;;;;15.63;9.90;;;13.90;99.90;;;;;;5058750;28;20108;-67
2021/08/18 03:13:09;;;;;;;13.50;9.93;;;13.90;99.90;;;;;;5059350;28;20087;-67
2021/08/18 03:15:34;;;;;;;17.15;10.00;;;13.90;99.90;;;;;;5055963;28;20102;-66
2021/08/18 03:18:00;;;;;;;17.75;10.05;;;13.90;99.90;;;;;;5058580;28;20551;-66
2021/08/18 03:20:29;;;;;;;17.45;9.93;;;13.90;99.90;;;;;;5057461;28;20032;-66
2021/08/18 03:22:55;;;;;;;17.38;9.35;;;13.90;99.90;;;;;;5061456;28;20040;-66
2021/08/18 03:25:21;;;;;;;17.70;9.60;;;13.90;99.90;;;;;;5054015;28;20403;-67
2021/08/18 03:27:47;;;;;;;12.90;8.68;;;13.90;99.90;;;;;;5055455;28;20040;-66
2021/08/18 03:30:13;;;;;;;17.65;10.27;;;13.90;99.90;;;;;;5058517;28;20521;-66
2021/08/18 03:32:39;;;;;;;17.00;9.82;;;13.90;99.90;;;;;;5058258;28;20021;-67
2021/08/18 03:35:05;;;;;;;16.35;10.02;;;13.90;99.90;;;;;;5059767;28;20384;-66
2021/08/18 03:37:34;;;;;;;16.77;10.13;;;13.90;99.90;;;;;;5059403;28;20480;-66
2021/08/18 03:40:00;;;;;;;16.38;10.07;;;13.90;99.90;;;;;;5056865;28;20150;-66
2021/08/18 03:42:26;;;;;;;18.25;9.30;;;13.80;99.90;;;;;;5054959;28;20502;-65
2021/08/18 03:44:52;;;;;;;17.13;10.25;;;13.90;99.90;;;;;;5060139;28;20025;-67
2021/08/18 03:47:17;;;;;;;15.68;9.95;;;13.80;99.90;;;;;;5058082;28;20025;-67
2021/08/18 03:49:43;;;;;;;15.98;9.65;;;13.80;99.90;;;;;;5062326;28;20577;-65
2021/08/18 03:52:11;;;;;;;20.08;10.32;;;13.80;99.90;;;;;;5060671;28;20112;-67
2021/08/18 03:54:37;;;;;;;17.83;10.38;;;13.80;99.90;;;;;;5058626;28;20035;-66
2021/08/18 03:57:03;;;;;;;13.73;9.15;;;13.80;99.90;;;;;;5057746;28;20111;-66
2021/08/18 03:59:29;;;;;;;17.42;10.13;;;13.80;99.90;;;;;;5055009;28;20037;-67
2021/08/18 04:01:55;;;;;;;17.92;10.35;;;13.80;99.90;;;;;;5057008;28;20481;-67
2021/08/18 04:04:20;;;;;;;21.25;11.93;;;13.80;99.90;;;;;;5059807;28;20064;-66
2021/08/18 04:06:46;;;;;;;17.25;10.60;;;13.80;99.90;;;;;;5041653;28;20021;-67
2021/08/18 04:09:12;;;;;;;18.90;10.90;;;13.80;99.90;;;;;;5060226;28;20394;-66
2021/08/18 04:11:38;;;;;;;19.63;11.38;;;13.80;99.90;;;;;;5059547;28;20378;-67
2021/08/18 04:14:04;;;;;;;16.88;10.77;;;13.70;99.90;;;;;;5055866;28;20025;-67
2021/08/18 04:16:30;;;;;;;18.33;11.93;;;13.70;99.90;;;;;;5037510;28;20477;-67
2021/08/18 04:18:55;;;;;;;20.15;11.70;;;13.70;99.90;;;;;;5058207;28;20024;-66
2021/08/18 04:21:21;;;;;;;18.95;12.35;;;13.80;99.90;;;;;;5058351;28;20032;-67
2021/08/18 04:23:47;;;;;;;18.80;12.52;;;13.70;99.90;;;;;;5057684;28;20075;-66
2021/08/18 04:26:13;;;;;;;15.88;10.90;;;13.80;99.90;;;;;;5059073;28;20035;-65
2021/08/18 04:28:39;;;;;;;17.58;11.45;;;13.80;99.90;;;;;;5060022;28;20033;-66
2021/08/18 04:31:05;;;;;;;16.60;11.48;;;13.90;99.90;;;;;;5037795;28;20578;-65
2021/08/18 04:33:31;;;;;;;14.95;10.50;;;13.90;99.90;;;;;;5036337;28;20029;-66
2021/08/18 04:35:57;;;;;;;19.98;11.13;;;13.90;99.90;;;;;;5057536;28;20777;-66
2021/08/18 04:38:24;;;;;;;19.52;12.32;;;14.00;99.90;;;;;;5057158;28;20037;-66
2021/08/18 04:40:50;;;;;;;18.75;11.80;;;13.90;99.90;;;;;;5058060;28;20033;-66
2021/08/18 04:43:16;;;;;;;19.85;11.73;;;13.90;99.90;;;;;;5053763;28;20509;-69
2021/08/18 04:45:41;;;;;;;18.02;11.95;;;14.00;99.90;;;;;;5058289;28;20032;-67
2021/08/18 04:48:07;;;;;;;18.15;11.40;;;14.00;99.90;;;;;;5051692;28;20409;-67
2021/08/18 04:50:33;;;;;;;16.02;10.55;;;14.00;99.90;;;;;;5056099;28;20056;-66
2021/08/18 04:52:59;;;;;;;20.45;11.48;;;14.00;99.90;;;;;;5058507;28;20017;-66
2021/08/18 04:55:24;;;;;;;17.83;12.05;;;14.00;99.90;;;;;;5054282;28;20053;-67
2021/08/18 04:57:50;;;;;;;17.17;12.02;;;14.00;99.90;;;;;;5053396;28;20028;-67
2021/08/18 05:00:17;;;;;;;16.50;11.13;;;14.00;99.90;;;;;;5053903;28;20037;-66
2021/08/18 05:02:45;;;;;;;17.50;10.90;;;14.00;99.90;;;;;;5046930;28;20514;-66
2021/08/18 05:05:11;;;;;;;22.70;12.40;;;14.00;99.90;;;;;;5055276;28;20040;-66
2021/08/18 05:07:37;;;;;;;18.35;11.57;;;14.00;99.90;;;;;;5058829;28;20073;-66
2021/08/18 05:10:04;;;;;;;19.05;11.38;;;14.10;99.90;;;;;;5056206;28;20048;-66
2021/08/18 05:12:31;;;;;;;18.92;11.35;;;14.10;99.90;;;;;;5020367;28;20107;-67
2021/08/18 05:14:57;;;;;;;16.88;10.88;;;14.10;99.90;;;;;;5058467;28;20037;-68
2021/08/18 05:17:23;;;;;;;17.42;10.05;;;14.10;99.90;;;;;;5038723;28;20032;-67
2021/08/18 05:19:49;;;;;;;18.13;10.65;;;14.20;99.90;;;;;;5054972;28;20029;-67
2021/08/18 05:22:15;;;;;;;14.15;10.20;;;14.20;99.90;;;;;;5041127;28;20032;-66
2021/08/18 05:24:40;;;;;;;14.65;10.30;;;14.20;99.90;;;;;;5058283;28;20387;-66
2021/08/18 05:27:06;;;;;;;14.25;10.25;;;14.20;99.90;;;;;;5056385;28;20017;-66
2021/08/18 05:29:34;;;;;;;15.60;10.27;;;14.30;99.90;;;;;;5057778;28;20528;-66
2021/08/18 05:32:00;;;;;;;13.95;9.80;;;14.30;99.90;;;;;;5056488;28;20086;-65
2021/08/18 05:34:26;;;;;;;18.98;9.48;;;14.30;99.90;;;;;;5055516;28;20017;-66
2021/08/18 05:36:51;;;;;;;14.60;9.65;;;14.40;99.90;;;;;;5048365;28;20489;-65
2021/08/18 05:39:17;;;;;;;15.07;9.77;;;14.40;99.90;;;;;;5052306;28;20061;-63
2021/08/18 05:41:43;;;;;;;17.85;10.00;;;14.40;99.90;;;;;;5054969;28;20099;-66
2021/08/18 05:44:08;;;;;;;15.32;9.82;;;14.40;99.90;;;;;;5050818;28;20391;-65
2021/08/18 05:46:34;;;;;;;14.75;9.80;;;14.50;99.90;;;;;;5055971;28;20505;-66
2021/08/18 05:49:00;;;;;;;12.98;9.52;;;14.50;99.90;;;;;;5056082;28;20389;-66
2021/08/18 05:51:26;;;;;;;14.20;9.48;;;14.50;99.90;;;;;;5053994;28;20033;-66
2021/08/18 05:53:51;;;;;;;13.43;9.93;;;14.60;99.90;;;;;;5053975;28;20029;-67
2021/08/18 05:56:18;;;;;;;16.52;9.98;;;14.60;99.90;;;;;;5058150;28;20564;-67
2021/08/18 05:58:44;;;;;;;16.77;9.70;;;14.70;99.90;;;;;;5055168;28;20076;-66
2021/08/18 06:01:10;;;;;;;13.50;9.05;;;14.80;99.90;;;;;;5054059;28;20491;-67
2021/08/18 06:03:36;;;;;;;13.90;9.50;;;14.80;99.90;;;;;;5056478;28;20037;-65
2021/08/18 06:06:02;;;;;;;14.90;9.40;;;14.90;99.90;;;;;;5039423;28;20078;-67
2021/08/18 06:08:28;;;;;;;12.98;8.35;;;15.00;99.90;;;;;;5054444;28;20032;-67
2021/08/18 06:10:54;;;;;;;11.93;8.55;;;15.00;99.90;;;;;;5054977;28;20016;-66
2021/08/18 06:13:19;;;;;;;13.85;8.65;;;15.00;99.90;;;;;;5056858;28;20535;-67
2021/08/18 06:15:45;;;;;;;12.07;7.78;;;15.00;99.90;;;;;;5056276;28;20036;-68
2021/08/18 06:18:11;;;;;;;14.23;8.48;;;15.10;99.90;;;;;;5054657;28;20140;-67
2021/08/18 06:20:39;;;;;;;11.18;7.05;;;15.10;99.90;;;;;;5057371;28;20482;-67
2021/08/18 06:23:05;;;;;;;16.05;10.63;;;15.10;99.90;;;;;;5055817;28;20035;-67
2021/08/18 06:25:31;;;;;;;11.57;6.55;;;15.10;99.90;;;;;;5050681;28;20136;-67
2021/08/18 06:27:59;;;;;;;13.20;6.55;;;15.10;99.90;;;;;;5057176;28;20089;-67
2021/08/18 06:30:25;;;;;;;8.63;4.80;;;15.10;99.90;;;;;;5047315;28;20104;-67
2021/08/18 06:32:51;;;;;;;6.45;4.90;;;15.10;99.90;;;;;;5050349;28;20104;-68
2021/08/18 06:35:16;;;;;;;7.70;4.82;;;15.20;99.90;;;;;;5052230;28;20025;-68
2021/08/18 06:37:42;;;;;;;7.80;5.13;;;15.30;99.90;;;;;;5051489;28;20439;-65
2021/08/18 06:40:09;;;;;;;7.63;4.63;;;15.20;99.90;;;;;;5055073;28;20040;-65
2021/08/18 06:42:40;;;;;;;6.53;4.80;;;15.20;99.90;;;;;;5051084;28;20045;-65
2021/08/18 06:45:06;;;;;;;10.20;5.45;;;15.10;99.90;;;;;;5056508;28;20094;-69
2021/08/18 06:47:32;;;;;;;9.55;5.57;;;15.10;99.90;;;;;;5037297;28;20029;-66
2021/08/18 06:49:58;;;;;;;7.30;4.65;;;15.10;99.90;;;;;;5055127;28;20425;-68
2021/08/18 06:52:24;;;;;;;8.60;4.65;;;15.00;99.90;;;;;;5036731;28;20893;-65
2021/08/18 06:54:51;;;;;;;8.73;4.80;;;15.00;99.90;;;;;;5057114;28;20067;-65
2021/08/18 06:57:16;;;;;;;7.25;4.15;;;15.00;99.90;;;;;;5053652;28;20032;-67
2021/08/18 06:59:42;;;;;;;8.43;4.50;;;15.10;99.90;;;;;;5056198;28;20458;-65
2021/08/18 07:02:08;;;;;;;5.45;3.70;;;15.10;99.90;;;;;;5051654;28;20141;-66
2021/08/18 07:04:33;;;;;;;6.93;3.80;;;15.20;99.90;;;;;;5055695;28;20068;-66
2021/08/18 07:06:59;;;;;;;6.72;4.28;;;15.20;99.90;;;;;;5054166;28;20025;-67
2021/08/18 07:09:25;;;;;;;6.82;4.35;;;15.30;99.90;;;;;;5054027;28;20056;-67
2021/08/18 07:11:50;;;;;;;10.82;4.15;;;15.40;99.90;;;;;;5055317;28;20029;-65
2021/08/18 07:14:16;;;;;;;7.10;3.70;;;15.40;99.90;;;;;;5055289;28;20025;-66
2021/08/18 07:16:42;;;;;;;5.35;3.72;;;15.40;99.90;;;;;;5056244;28;20079;-65
2021/08/18 07:19:07;;;;;;;7.72;4.53;;;15.50;99.90;;;;;;5059526;28;20044;-65
2021/08/18 07:21:33;;;;;;;7.78;4.30;;;15.50;99.90;;;;;;5057666;28;20037;-67
2021/08/18 07:23:59;;;;;;;8.18;3.80;;;15.60;99.90;;;;;;5059107;28;20050;-66
2021/08/18 07:26:27;;;;;;;6.50;4.18;;;15.60;99.90;;;;;;5058558;28;20040;-66
2021/08/18 07:28:54;;;;;;;5.43;3.75;;;15.60;99.90;;;;;;5056133;28;20025;-65
2021/08/18 07:31:19;;;;;;;6.20;3.60;;;15.60;99.90;;;;;;5057862;28;20017;-66
2021/08/18 07:33:45;;;;;;;6.78;4.50;;;15.60;99.90;;;;;;5060388;28;20090;-66
2021/08/18 07:36:11;;;;;;;5.35;3.47;;;15.60;99.90;;;;;;5057308;28;20048;-65
2021/08/18 07:38:36;;;;;;;6.45;4.18;;;15.60;99.90;;;;;;5055372;28;20117;-66
2021/08/18 07:41:02;;;;;;;6.32;3.65;;;15.60;99.90;;;;;;5061152;28;20482;-65
2021/08/18 07:43:28;;;;;;;6.80;3.72;;;15.60;99.90;;;;;;5056906;28;20460;-66
2021/08/18 07:45:54;;;;;;;6.35;3.83;;;15.60;99.90;;;;;;5059726;28;20083;-65
2021/08/18 07:48:19;;;;;;;9.35;3.95;;;15.60;99.90;;;;;;5057852;28;20032;-66
2021/08/18 07:50:45;;;;;;;9.30;4.47;;;15.60;99.90;;;;;;5057757;28;20493;-66
2021/08/18 07:53:11;;;;;;;5.13;3.35;;;15.50;99.90;;;;;;5057240;28;20113;-65
2021/08/18 07:55:40;;;;;;;6.38;3.70;;;15.60;99.90;;;;;;5056548;28;20104;-65
2021/08/18 07:58:05;;;;;;;5.55;3.15;;;15.60;99.90;;;;;;5057406;28;20033;-65
2021/08/18 08:00:32;;;;;;;6.65;4.00;;;15.60;99.90;;;;;;5055641;28;20041;-67
2021/08/18 08:02:58;;;;;;;5.32;3.55;;;15.70;99.90;;;;;;5059153;28;20636;-65
2021/08/18 08:05:24;;;;;;;5.28;3.35;;;15.80;99.90;;;;;;5056566;28;20067;-66
2021/08/18 08:07:49;;;;;;;7.18;3.35;;;15.90;99.90;;;;;;5054994;28;20124;-67
2021/08/18 08:10:15;;;;;;;8.43;4.20;;;16.00;99.90;;;;;;5058541;28;20096;-66
2021/08/18 08:12:41;;;;;;;4.25;3.10;;;16.10;99.90;;;;;;5059957;28;20498;-66
2021/08/18 08:15:08;;;;;;;6.22;3.13;;;16.20;99.90;;;;;;5056628;28;20021;-67
2021/08/18 08:17:34;;;;;;;7.03;3.38;;;16.30;99.90;;;;;;5057450;28;20379;-70
2021/08/18 08:20:00;;;;;;;7.95;3.28;;;16.30;99.90;;;;;;5056766;28;20020;-66
2021/08/18 08:22:26;;;;;;;5.60;3.47;;;16.30;99.90;;;;;;5054289;28;20025;-67
2021/08/18 08:24:52;;;;;;;6.22;3.28;;;16.40;99.90;;;;;;5055417;28;20032;-66
2021/08/18 08:27:18;;;;;;;4.22;2.95;;;16.40;99.90;;;;;;5039471;28;20029;-66
2021/08/18 08:29:43;;;;;;;5.07;3.13;;;16.50;99.90;;;;;;5039063;28;20116;-66
2021/08/18 08:32:10;;;;;;;6.78;2.97;;;16.50;99.90;;;;;;5036278;28;20386;-66
2021/08/18 08:34:36;;;;;;;5.03;2.78;;;16.50;99.80;;;;;;5041697;28;20223;-65
2021/08/18 08:37:02;;;;;;;7.03;2.97;;;16.50;99.80;;;;;;5037778;28;20112;-66
2021/08/18 08:39:28;;;;;;;5.53;2.67;;;16.60;99.00;;;;;;5058570;28;20119;-67
2021/08/18 08:41:54;;;;;;;5.13;2.92;;;16.50;98.80;;;;;;5058484;28;20029;-66
2021/08/18 08:44:23;;;;;;;3.60;2.35;;;16.50;99.00;;;;;;5055697;28;20394;-67
2021/08/18 08:46:53;;;;;;;4.47;2.63;;;16.40;99.20;;;;;;5055689;28;20119;-66
2021/08/18 08:49:21;;;;;;;5.40;2.88;;;16.40;99.30;;;;;;5053589;28;20029;-68
2021/08/18 08:51:49;;;;;;;5.50;3.40;;;16.40;99.60;;;;;;5057376;28;20059;-66
2021/08/18 08:54:18;;;;;;;4.47;2.60;;;16.30;99.70;;;;;;5057732;28;20092;-67
2021/08/18 08:56:44;;;;;;;4.97;2.85;;;16.30;99.80;;;;;;5055358;28;20535;-66
2021/08/18 08:59:10;;;;;;;6.55;3.20;;;16.40;99.90;;;;;;5057553;28;20032;-66
2021/08/18 09:02:08;;;;;;;6.10;3.60;;;16.40;99.90;;;;;;5054639;28;20035;-66
2021/08/18 09:04:40;;;;;;;4.03;2.72;;;16.50;99.90;;;;;;5054646;28;20091;-66
2021/08/18 09:07:16;;;;;;;7.25;3.40;;;16.50;99.60;;;;;;5053362;28;20032;-66
2021/08/18 09:09:49;;;;;;;5.05;3.55;;;16.50;99.70;;;;;;5052366;28;20048;-66
2021/08/18 09:12:17;;;;;;;6.65;3.47;;;16.50;99.90;;;;;;5056833;28;20046;-67
2021/08/18 09:14:43;;;;;;;7.15;3.30;;;16.70;99.60;;;;;;5054666;28;20029;-66
2021/08/18 09:17:36;;;;;;;7.45;3.53;;;16.90;99.60;;;;;;5056627;28;20400;-65
2021/08/18 09:20:13;;;;;;;5.65;3.45;;;17.10;99.10;;;;;;5057095;28;20035;-67
2021/08/18 09:22:48;;;;;;;5.00;3.28;;;17.10;98.90;;;;;;5054802;28;20032;-66
2021/08/18 09:25:23;;;;;;;5.55;3.50;;;17.20;99.10;;;;;;5051689;28;20024;-67
2021/08/18 09:27:55;;;;;;;6.70;3.30;;;17.30;98.80;;;;;;5056979;28;20032;-65
2021/08/18 09:30:27;;;;;;;9.13;3.72;;;17.30;98.70;;;;;;5052803;28;20433;-65
2021/08/18 09:32:54;;;;;;;7.68;3.47;;;17.20;98.50;;;;;;5047866;28;20390;-67
2021/08/18 09:35:22;;;;;;;6.82;3.63;;;17.20;98.10;;;;;;5053531;28;20025;-68
2021/08/18 09:37:54;;;;;;;7.75;4.03;;;17.10;98.60;;;;;;5055192;28;20126;-66
2021/08/18 09:40:29;;;;;;;10.15;4.28;;;17.20;98.70;;;;;;5056173;28;20024;-66
2021/08/18 09:43:25;;;;;;;6.00;4.07;;;17.20;98.20;;;;;;5056147;28;20051;-66
2021/08/18 09:45:58;;;;;;;6.78;3.38;;;17.30;98.30;;;;;;5047744;28;20044;-65
2021/08/18 09:48:26;;;;;;;7.72;4.10;;;17.30;97.90;;;;;;5053853;28;20028;-66
2021/08/18 09:50:59;;;;;;;8.88;4.28;;;17.40;98.00;;;;;;5057186;28;20021;-66
2021/08/18 09:53:32;;;;;;;7.30;3.95;;;17.40;97.50;;;;;;5053531;28;20099;-67
2021/08/18 09:56:02;;;;;;;8.95;4.00;;;17.60;97.40;;;;;;5056928;28;20449;-67
2021/08/18 09:58:36;;;;;;;8.40;4.43;;;17.80;97.60;;;;;;5055505;28;20036;-67
2021/08/18 10:01:13;;;;;;;7.18;3.83;;;17.80;96.80;;;;;;5052766;28;20044;-66
2021/08/18 10:03:41;;;;;;;6.50;4.00;;;17.90;96.80;;;;;;5053152;28;20098;-65
2021/08/18 10:06:08;;;;;;;9.23;4.03;;;18.00;96.40;;;;;;5052692;28;20037;-66
2021/08/18 10:08:35;;;;;;;10.52;4.43;;;18.00;96.40;;;;;;5051412;28;20032;-65
2021/08/18 10:11:02;;;;;;;6.03;3.63;;;18.00;96.10;;;;;;5054589;28;20029;-67
2021/08/18 10:13:29;;;;;;;7.15;3.72;;;18.10;95.50;;;;;;5053319;28;20021;-66
2021/08/18 10:15:55;;;;;;;8.30;4.03;;;18.20;95.60;;;;;;5053560;28;20039;-66
2021/08/18 10:18:33;;;;;;;5.47;3.42;;;18.30;95.40;;;;;;5053469;28;20037;-65
2021/08/18 10:21:06;;;;;;;9.18;4.03;;;18.30;95.80;;;;;;5055922;28;20067;-66
2021/08/18 10:23:51;;;;;;;8.20;3.30;;;18.20;95.20;;;;;;5056861;28;20069;-67
2021/08/18 10:26:38;;;;;;;7.97;3.78;;;18.30;95.10;;;;;;5039422;28;20032;-66
2021/08/18 10:29:26;;;;;;;10.07;3.90;;;18.20;95.20;;;;;;5054674;28;20037;-68
2021/08/18 10:31:52;;;;;;;7.15;3.78;;;18.20;95.50;;;;;;5053800;28;20051;-66
2021/08/18 10:34:33;;;;;;;10.50;3.97;;;18.30;95.20;;;;;;5038347;28;20060;-68
2021/08/18 10:37:06;;;;;;;5.88;3.35;;;18.30;94.20;;;;;;5057545;28;20398;-68
2021/08/18 10:39:37;;;;;;;7.38;4.43;;;18.30;94.40;;;;;;5053084;28;20037;-67
2021/08/18 10:42:03;;;;;;;9.82;3.92;;;18.40;94.70;;;;;;5052499;28;20372;-67
2021/08/18 10:44:33;;;;;;;7.38;3.60;;;18.30;95.00;;;;;;5056827;28;20037;-66
2021/08/18 10:47:21;;;;;;;5.93;3.80;;;18.40;94.60;;;;;;5039140;28;20517;-68
2021/08/18 10:50:12;;;;;;;6.75;3.92;;;18.60;94.80;;;;;;5040327;28;20041;-66
2021/08/18 10:52:37;;;;;;;7.60;3.92;;;18.80;94.70;;;;;;5056981;28;20083;-64
2021/08/18 10:55:07;;;;;;;9.15;4.18;;;19.00;92.90;;;;;;5056719;28;20434;-69
2021/08/18 10:57:50;;;;;;;7.72;4.30;;;19.10;93.50;;;;;;5060963;28;20056;-66
2021/08/18 11:00:20;;;;;;;6.90;3.55;;;19.30;93.20;;;;;;5059402;28;20372;-64
2021/08/18 11:02:52;;;;;;;8.65;4.45;;;19.40;93.10;;;;;;5057843;28;20612;-65
2021/08/18 11:05:43;;;;;;;6.72;3.88;;;19.40;92.90;;;;;;5059106;28;20043;-65
2021/08/18 11:08:10;;;;;;;10.87;4.80;;;19.50;93.30;;;;;;5046885;28;20122;-64
2021/08/18 11:10:37;;;;;;;8.73;3.75;;;19.40;93.10;;;;;;5057637;28;20029;-65
2021/08/18 11:13:06;;;;;;;8.38;4.10;;;19.50;92.40;;;;;;5058554;28;20029;-65
2021/08/18 11:15:31;;;;;;;6.85;3.60;;;19.30;92.80;;;;;;5061448;28;20066;-65
2021/08/18 11:17:58;;;;;;;11.77;4.30;;;19.10;92.90;;;;;;5059838;28;20033;-66
2021/08/18 11:20:30;;;;;;;9.00;4.32;;;19.00;93.60;;;;;;5058320;28;20033;-64
2021/08/18 11:23:01;;;;;;;16.38;4.97;;;18.90;93.70;;;;;;5054160;28;20156;-66
2021/08/18 11:25:27;;;;;;;9.25;4.50;;;18.70;93.60;;;;;;5059713;28;20033;-64
2021/08/18 11:27:55;;;;;;;9.63;4.70;;;18.70;93.70;;;;;;5058463;28;20025;-64
2021/08/18 11:30:31;;;;;;;12.10;4.43;;;18.70;93.20;;;;;;5059018;28;20021;-65
2021/08/18 11:33:20;;;;;;;13.13;5.05;;;18.60;92.80;;;;;;5058966;28;20047;-66
2021/08/18 11:35:46;;;;;;;11.68;5.30;;;18.50;94.00;;;;;;5059237;28;20059;-64
2021/08/18 11:38:12;;;;;;;9.95;4.50;;;18.40;94.00;;;;;;5053594;28;20048;-65
2021/08/18 11:40:39;;;;;;;8.20;4.40;;;18.40;93.20;;;;;;5059345;28;20033;-65
2021/08/18 11:43:06;;;;;;;8.68;4.13;;;18.30;93.50;;;;;;5058919;28;20082;-67
2021/08/18 11:45:34;;;;;;;8.32;4.47;;;18.20;93.70;;;;;;5057871;28;20542;-65
2021/08/18 11:48:07;;;;;;;9.35;4.13;;;18.20;93.80;;;;;;5054952;28;20064;-64
2021/08/18 11:50:33;;;;;;;11.15;4.25;;;18.30;94.10;;;;;;5056117;28;20061;-66
2021/08/18 11:53:04;;;;;;;6.75;3.55;;;18.50;94.30;;;;;;5059272;28;20057;-65
2021/08/18 11:55:31;;;;;;;4.43;3.00;;;19.90;93.20;;;;;;5058637;28;20044;-65
2021/08/18 11:58:08;;;;;;;81.88;46.13;;;22.10;91.20;;;;;;5055885;28;20032;-66
2021/08/18 12:00:35;;;;;;;24.80;14.85;;;24.00;84.10;;;;;;5035465;28;20048;-66
2021/08/18 12:03:03;;;;;;;57.38;41.47;;;25.20;78.40;;;;;;5057319;28;20040;-66
2021/08/18 12:05:30;;;;;;;6.57;3.63;;;26.20;76.50;;;;;;5057512;28;20262;-66
2021/08/18 12:08:07;;;;;;;6.43;2.85;;;26.30;72.50;;;;;;5058446;28;20033;-65
2021/08/18 12:10:40;;;;;;;4.97;2.88;;;25.80;72.30;;;;;;5023661;28;20124;-65
2021/08/18 12:13:14;;;;;;;6.28;2.85;;;24.60;74.50;;;;;;5022930;28;20441;-65
2021/08/18 12:15:45;;;;;;;6.68;3.22;;;23.70;76.50;;;;;;5058416;28;20086;-67
2021/08/18 12:18:34;;;;;;;7.20;3.30;;;22.60;80.40;;;;;;5059599;28;20109;-65
2021/08/18 12:21:24;;;;;;;10.70;4.25;;;21.80;83.80;;;;;;5040931;28;20040;-65
2021/08/18 12:23:53;;;;;;;5.68;2.95;;;21.30;85.20;;;;;;5041129;28;20032;-65
2021/08/18 12:26:34;;;;;;;5.68;3.10;;;20.80;87.00;;;;;;5057343;28;20490;-65
2021/08/18 12:29:02;;;;;;;6.53;2.60;;;20.40;87.20;;;;;;5054259;28;20046;-66
2021/08/18 12:31:54;;;;;;;6.93;3.15;;;20.20;87.70;;;;;;5056637;28;20029;-65
2021/08/18 12:34:39;;;;;;;;;;;20.00;88.70;;;;;;5058560;28;20037;-67
2021/08/18 12:37:17;;;;;;;7.60;3.40;;;19.90;89.20;;;;;;5058219;28;20385;-66
2021/08/18 12:39:56;;;;;;;6.47;3.42;;;19.90;90.10;;;;;;5054343;28;20392;-67
2021/08/18 12:42:32;;;;;;;3.55;2.80;;;20.00;90.30;;;;;;5057553;28;20159;-66
2021/08/18 12:45:17;;;;;;;5.78;2.97;;;20.30;90.50;;;;;;5054907;28;20579;-65
2021/08/18 12:47:55;;;;;;;7.00;3.30;;;20.40;89.30;;;;;;5052144;28;20327;-67